createdAt,value
2022-09-23T00:01:10.240Z,79.13
2022-09-23T00:03:39.648Z,79.25
2022-09-23T00:06:10.730Z,79.05
2022-09-23T00:08:38.781Z,79.37
2022-09-23T00:11:11.601Z,79.78
2022-09-23T00:13:40.005Z,79.71
2022-09-23T00:16:10.041Z,79.60
2022-09-23T00:18:37.191Z,79.38
2022-09-23T00:21:05.756Z,78.67
2022-09-23T00:23:33.150Z,79.00
2022-09-23T00:26:02.493Z,79.35
2022-09-23T00:28:30.227Z,79.27
2022-09-23T00:31:09.225Z,79.12
2022-09-23T00:33:36.349Z,79.64
2022-09-23T00:36:08.556Z,79.67
2022-09-23T00:38:35.589Z,80.04
2022-09-23T00:41:02.769Z,79.95
2022-09-23T00:43:41.499Z,79.57
2022-09-23T00:46:10.421Z,79.38
2022-09-23T00:48:39.477Z,79.46
2022-09-23T00:51:08.613Z,79.84
2022-09-23T00:53:35.912Z,80.06
2022-09-23T00:56:07.054Z,80.42
2022-09-23T00:58:36.099Z,80.77
2022-09-23T01:01:03.638Z,80.44
2022-09-23T01:03:31.224Z,79.93
2022-09-23T01:05:59.022Z,80.18
2022-09-23T01:08:27.262Z,80.16
2022-09-23T01:11:03.374Z,79.30
2022-09-23T01:14:04.768Z,78.95
2022-09-23T01:16:43.733Z,78.77
2022-09-23T01:19:32.674Z,79.94
2022-09-23T01:22:20.476Z,80.35
2022-09-23T01:25:09.706Z,79.97
2022-09-23T01:28:07.719Z,80.95
2022-09-23T01:30:44.274Z,81.22
2022-09-23T01:33:18.584Z,80.74
2022-09-23T01:35:58.761Z,80.01
2022-09-23T01:38:40.299Z,80.11
2022-09-23T01:41:28.405Z,80.42
2022-09-23T01:44:04.882Z,79.71
2022-09-23T01:46:38.314Z,79.85
2022-09-23T01:49:14.718Z,80.33
2022-09-23T01:51:45.740Z,80.65
2022-09-23T01:54:19.295Z,79.46
2022-09-23T01:56:57.652Z,80.41
2022-09-23T01:59:31.220Z,79.83
2022-09-23T02:02:04.544Z,79.52
2022-09-23T02:04:49.158Z,79.84
2022-09-23T02:07:25.739Z,80.26
2022-09-23T02:10:12.873Z,80.88
2022-09-23T02:12:42.150Z,80.42
2022-09-23T02:15:12.000Z,80.98
2022-09-23T02:18:22.099Z,80.27
2022-09-23T02:20:50.788Z,80.52
2022-09-23T02:23:27.900Z,80.41
2022-09-23T02:26:01.888Z,80.57
2022-09-23T02:28:38.180Z,80.35
2022-09-23T02:31:09.520Z,79.93
2022-09-23T02:34:00.353Z,79.38
2022-09-23T02:36:32.578Z,79.46
2022-09-23T02:39:03.934Z,79.85
2022-09-23T02:41:37.191Z,80.78
2022-09-23T02:44:11.630Z,81.22
2022-09-23T02:46:38.941Z,80.29
2022-09-23T02:49:11.220Z,80.00
2022-09-23T02:51:39.569Z,80.33
2022-09-23T02:54:10.585Z,80.69
2022-09-23T02:56:37.907Z,81.30
2022-09-23T02:59:06.070Z,80.60
2022-09-23T03:02:14.032Z,80.92
2022-09-23T03:05:03.757Z,80.79
2022-09-23T03:07:33.457Z,80.26
2022-09-23T03:10:12.104Z,80.72
2022-09-23T03:12:52.838Z,81.19
2022-09-23T03:15:32.022Z,80.57
2022-09-23T03:18:13.055Z,81.29
2022-09-23T03:20:55.055Z,81.39
2022-09-23T03:23:26.235Z,80.80
2022-09-23T03:25:56.657Z,81.00
2022-09-23T03:28:25.384Z,81.38
2022-09-23T03:30:53.166Z,81.41
2022-09-23T03:33:26.741Z,80.91
2022-09-23T03:36:18.823Z,80.12
2022-09-23T03:38:51.377Z,80.92
2022-09-23T03:41:28.971Z,80.04
2022-09-23T03:43:58.443Z,80.18
2022-09-23T03:46:26.524Z,80.80
2022-09-23T03:48:57.611Z,80.44
2022-09-23T03:51:24.816Z,80.31
2022-09-23T03:53:51.903Z,81.18
2022-09-23T03:56:19.074Z,80.81
2022-09-23T03:58:46.576Z,80.50
2022-09-23T04:01:14.785Z,81.63
2022-09-23T04:03:42.005Z,81.55
2022-09-23T04:06:09.084Z,81.50
2022-09-23T04:08:36.148Z,81.39
2022-09-23T04:11:04.668Z,81.18
2022-09-23T04:13:32.172Z,81.33
2022-09-23T04:15:59.320Z,80.89
2022-09-23T04:18:26.718Z,80.91
2022-09-23T04:21:00.255Z,81.18
2022-09-23T04:23:27.343Z,81.09
2022-09-23T04:25:54.811Z,80.93
2022-09-23T04:28:22.533Z,81.02
2022-09-23T04:30:49.640Z,81.69
2022-09-23T04:33:17.150Z,80.91
2022-09-23T04:35:44.248Z,80.74
2022-09-23T04:38:12.535Z,80.93
2022-09-23T04:40:40.020Z,81.62
2022-09-23T04:43:10.564Z,81.31
2022-09-23T04:45:40.042Z,81.13
2022-09-23T04:48:09.565Z,81.62
2022-09-23T04:50:37.593Z,81.12
2022-09-23T04:53:05.049Z,81.77
2022-09-23T04:55:32.578Z,81.48
2022-09-23T04:57:59.767Z,81.64
2022-09-23T05:00:27.060Z,81.59
2022-09-23T05:02:54.229Z,81.51
2022-09-23T05:05:23.264Z,81.48
2022-09-23T05:07:51.143Z,81.40
2022-09-23T05:10:18.345Z,81.50
2022-09-23T05:12:45.389Z,81.78
2022-09-23T05:15:14.785Z,80.94
2022-09-23T05:17:44.688Z,81.64
2022-09-23T05:20:14.397Z,81.29
2022-09-23T05:22:41.450Z,81.21
2022-09-23T05:25:08.942Z,81.60
2022-09-23T05:27:36.617Z,81.06
2022-09-23T05:30:03.820Z,81.57
2022-09-23T05:32:31.697Z,81.85
2022-09-23T05:34:58.730Z,81.98
2022-09-23T05:37:25.781Z,81.89
2022-09-23T05:39:52.861Z,81.89
2022-09-23T05:42:21.147Z,82.00
2022-09-23T05:44:48.472Z,80.99
2022-09-23T05:47:15.554Z,81.89
2022-09-23T05:49:59.166Z,81.51
2022-09-23T05:52:27.259Z,81.00
2022-09-23T05:54:54.319Z,80.31
2022-09-23T05:57:21.508Z,80.43
2022-09-23T05:59:48.606Z,80.88
2022-09-23T06:02:15.773Z,81.32
2022-09-23T06:04:43.839Z,80.82
2022-09-23T06:07:11.063Z,81.25
2022-09-23T06:09:38.144Z,80.89
2022-09-23T06:12:06.500Z,80.95
2022-09-23T06:14:33.569Z,81.45
2022-09-23T06:17:00.672Z,81.62
2022-09-23T06:19:27.692Z,81.23
2022-09-23T06:21:54.799Z,81.01
2022-09-23T06:24:25.952Z,81.29
2022-09-23T06:26:55.793Z,81.80
2022-09-23T06:29:22.852Z,81.63
2022-09-23T06:31:50.353Z,81.38
2022-09-23T06:34:17.895Z,81.66
2022-09-23T06:36:46.524Z,82.25
2022-09-23T06:39:15.262Z,81.64
2022-09-23T06:41:43.253Z,81.51
2022-09-23T06:44:10.500Z,81.44
2022-09-23T06:46:37.673Z,81.17
2022-09-23T06:49:04.781Z,81.43
2022-09-23T06:51:32.191Z,81.47
2022-09-23T06:53:59.371Z,80.93
2022-09-23T06:56:26.529Z,81.12
2022-09-23T06:58:54.749Z,81.02
2022-09-23T07:01:22.755Z,80.96
2022-09-23T07:03:50.156Z,80.36
2022-09-23T07:06:17.443Z,80.25
2022-09-23T07:08:46.782Z,78.77
2022-09-23T07:11:14.600Z,77.57
2022-09-23T07:13:42.215Z,77.58
2022-09-23T07:16:10.234Z,77.60
2022-09-23T07:18:37.737Z,77.91
2022-09-23T07:21:10.233Z,76.63
2022-09-23T07:23:37.835Z,75.57
2022-09-23T07:26:05.670Z,75.07
2022-09-23T07:28:32.724Z,73.47
2022-09-23T07:31:13.068Z,73.36
2022-09-23T07:33:44.166Z,72.76
2022-09-23T07:36:14.146Z,72.43
2022-09-23T07:38:45.198Z,71.91
2022-09-23T07:41:16.044Z,71.85
2022-09-23T07:43:44.045Z,70.86
2022-09-23T07:46:15.564Z,70.53
2022-09-23T07:48:43.132Z,70.10
2022-09-23T07:51:13.391Z,69.52
2022-09-23T07:53:40.463Z,70.08
2022-09-23T07:56:07.536Z,69.26
2022-09-23T07:58:35.225Z,69.85
2022-09-23T08:01:05.015Z,69.15
2022-09-23T08:03:32.104Z,68.69
2022-09-23T08:06:05.349Z,68.03
2022-09-23T08:08:32.418Z,67.72
2022-09-23T08:11:04.450Z,67.89
2022-09-23T08:13:32.500Z,67.88
2022-09-23T08:15:59.887Z,67.52
2022-09-23T08:18:27.040Z,66.69
2022-09-23T08:20:54.125Z,66.35
2022-09-23T08:23:21.230Z,65.09
2022-09-23T08:25:48.278Z,65.38
2022-09-23T08:28:16.774Z,65.28
2022-09-23T08:30:44.894Z,63.92
2022-09-23T08:33:19.649Z,63.92
2022-09-23T08:35:49.773Z,63.86
2022-09-23T08:38:16.827Z,63.35
2022-09-23T08:40:48.707Z,63.11
2022-09-23T08:43:19.213Z,60.54
2022-09-23T08:45:46.434Z,60.49
2022-09-23T08:48:16.254Z,59.84
2022-09-23T08:50:45.943Z,60.54
2022-09-23T08:53:26.185Z,58.74
2022-09-23T08:55:55.402Z,56.13
2022-09-23T08:58:50.454Z,54.05
2022-09-23T09:01:40.020Z,53.78
2022-09-23T09:04:27.627Z,53.77
2022-09-23T09:07:12.307Z,53.31
2022-09-23T09:09:41.771Z,54.13
2022-09-23T09:12:14.395Z,54.77
2022-09-23T09:14:53.615Z,55.13
2022-09-23T09:17:36.639Z,55.07
2022-09-23T09:20:18.887Z,52.13
2022-09-23T09:22:53.788Z,51.76
2022-09-23T09:25:34.385Z,52.20
2022-09-23T09:28:03.792Z,48.13
2022-09-23T09:30:32.616Z,48.52
2022-09-23T09:33:04.157Z,47.98
2022-09-23T09:35:37.749Z,46.15
2022-09-23T09:38:08.328Z,47.60
2022-09-23T09:40:35.660Z,47.23
2022-09-23T09:43:05.726Z,46.27
2022-09-23T09:45:57.789Z,45.60
2022-09-23T09:48:53.588Z,47.80
2022-09-23T09:51:25.475Z,46.97
2022-09-23T09:53:52.538Z,48.26
2022-09-23T09:56:26.779Z,47.30
2022-09-23T09:59:02.193Z,48.18
2022-09-23T10:01:31.673Z,48.22
2022-09-23T10:04:04.715Z,44.87
2022-09-23T10:06:33.803Z,46.36
2022-09-23T10:09:19.198Z,45.61
2022-09-23T10:12:15.865Z,44.43
2022-09-23T10:14:43.083Z,44.36
2022-09-23T10:17:28.209Z,44.85
2022-09-23T10:20:00.253Z,46.63
2022-09-23T10:22:36.479Z,45.53
2022-09-23T10:25:09.847Z,45.32
2022-09-23T10:27:37.427Z,44.76
2022-09-23T10:30:21.807Z,44.22
2022-09-23T10:32:50.324Z,45.27
2022-09-23T10:35:22.991Z,44.60
2022-09-23T10:37:54.545Z,44.27
2022-09-23T10:40:56.447Z,44.58
2022-09-23T10:43:58.580Z,44.20
2022-09-23T10:46:41.355Z,46.34
2022-09-23T10:49:46.169Z,46.36
2022-09-23T10:52:22.276Z,45.50
2022-09-23T10:55:16.138Z,44.85
2022-09-23T10:57:46.273Z,45.99
2022-09-23T11:00:41.078Z,45.71
2022-09-23T11:03:32.164Z,43.70
2022-09-23T11:06:35.778Z,45.09
2022-09-23T11:09:28.419Z,43.06
2022-09-23T11:12:25.104Z,43.45
2022-09-23T11:15:14.458Z,44.05
2022-09-23T11:18:02.758Z,43.62
2022-09-23T11:20:43.801Z,43.38
2022-09-23T11:23:22.706Z,43.17
2022-09-23T11:26:06.573Z,45.87
2022-09-23T11:28:45.376Z,44.93
2022-09-23T11:31:51.079Z,45.84
2022-09-23T11:34:35.032Z,44.65
2022-09-23T11:37:09.291Z,45.25
2022-09-23T11:39:52.262Z,42.64
2022-09-23T11:42:33.510Z,44.29
2022-09-23T11:45:23.382Z,42.72
2022-09-23T11:47:59.790Z,42.87
2022-09-23T11:50:32.403Z,45.36
2022-09-23T11:53:43.971Z,45.02
2022-09-23T11:56:37.174Z,44.07
2022-09-23T11:59:39.320Z,45.89
2022-09-23T12:02:23.753Z,43.80
2022-09-23T12:05:17.947Z,45.88
2022-09-23T12:08:12.386Z,46.73
2022-09-23T12:10:48.115Z,47.01
2022-09-23T12:13:27.242Z,47.45
2022-09-23T12:16:11.112Z,45.89
2022-09-23T12:19:04.669Z,46.74
2022-09-23T12:22:10.124Z,45.31
2022-09-23T12:24:51.763Z,45.11
2022-09-23T12:27:24.111Z,44.85
2022-09-23T12:29:56.716Z,43.80
2022-09-23T12:32:24.996Z,43.43
2022-09-23T12:34:52.305Z,43.31
2022-09-23T12:37:28.124Z,42.73
2022-09-23T12:39:59.470Z,44.53
2022-09-23T12:42:30.900Z,43.66
2022-09-23T12:45:37.692Z,43.59
2022-09-23T12:48:27.893Z,44.66
2022-09-23T12:51:13.309Z,44.58
2022-09-23T12:53:40.236Z,45.66
2022-09-23T12:56:22.851Z,45.34
2022-09-23T12:58:50.584Z,46.11
2022-09-23T13:01:23.367Z,47.14
2022-09-23T13:04:11.208Z,47.04
2022-09-23T13:07:06.599Z,47.20
2022-09-23T13:09:41.930Z,45.42
2022-09-23T13:12:18.603Z,46.93
2022-09-23T13:14:46.702Z,48.11
2022-09-23T13:17:26.255Z,45.72
2022-09-23T13:20:00.044Z,46.12
2022-09-23T13:22:41.914Z,47.09
2022-09-23T13:25:24.080Z,46.52
2022-09-23T13:27:54.702Z,47.31
2022-09-23T13:30:26.389Z,47.59
2022-09-23T13:33:14.683Z,47.09
2022-09-23T13:35:50.761Z,46.38
2022-09-23T13:38:25.014Z,46.65
2022-09-23T13:41:04.696Z,45.72
2022-09-23T13:43:41.402Z,44.55
2022-09-23T13:46:22.841Z,44.34
2022-09-23T13:48:54.742Z,46.51
2022-09-23T13:51:33.499Z,46.83
2022-09-23T13:54:02.434Z,45.62
2022-09-23T13:56:31.752Z,46.71
2022-09-23T13:59:20.384Z,47.40
2022-09-23T14:01:47.548Z,47.22
2022-09-23T14:04:24.273Z,46.71
2022-09-23T14:06:51.971Z,46.25
2022-09-23T14:09:22.661Z,46.87
2022-09-23T14:11:50.783Z,47.51
2022-09-23T14:14:18.203Z,48.29
2022-09-23T14:16:45.374Z,48.54
2022-09-23T14:19:18.119Z,48.13
2022-09-23T14:21:49.191Z,45.91
2022-09-23T14:24:25.358Z,45.87
2022-09-23T14:26:55.912Z,46.19
2022-09-23T14:29:26.381Z,46.80
2022-09-23T14:32:00.220Z,46.66
2022-09-23T14:35:13.063Z,46.65
2022-09-23T14:38:00.703Z,46.69
2022-09-23T14:40:31.717Z,47.30
2022-09-23T14:43:22.726Z,47.85
2022-09-23T14:45:56.558Z,46.05
2022-09-23T14:48:26.460Z,45.74
2022-09-23T14:51:01.590Z,45.70
2022-09-23T14:53:42.913Z,45.90
2022-09-23T14:56:13.460Z,46.42
2022-09-23T14:58:42.883Z,45.98
2022-09-23T15:01:32.457Z,45.17
2022-09-23T15:04:09.963Z,46.49
2022-09-23T15:06:44.830Z,48.06
2022-09-23T15:09:19.979Z,48.94
2022-09-23T15:11:47.412Z,48.36
2022-09-23T15:14:36.678Z,48.51
2022-09-23T15:17:03.770Z,49.44
2022-09-23T15:19:31.580Z,48.37
2022-09-23T15:21:58.739Z,49.06
2022-09-23T15:24:41.202Z,49.16
2022-09-23T15:27:22.843Z,49.03
2022-09-23T15:29:50.030Z,49.57
2022-09-23T15:32:17.187Z,50.87
2022-09-23T15:34:44.242Z,49.94
2022-09-23T15:37:12.459Z,50.83
2022-09-23T15:39:39.613Z,50.11
2022-09-23T15:42:10.223Z,51.03
2022-09-23T15:44:38.019Z,51.50
2022-09-23T15:47:05.208Z,51.51
2022-09-23T15:49:34.811Z,51.93
2022-09-23T15:52:04.344Z,51.31
2022-09-23T15:54:32.510Z,51.74
2022-09-23T15:57:01.092Z,51.38
2022-09-23T15:59:31.078Z,51.81
2022-09-23T16:02:01.830Z,51.53
2022-09-23T16:04:31.291Z,52.07
2022-09-23T16:06:59.001Z,52.78
2022-09-23T16:09:30.732Z,52.69
2022-09-23T16:11:57.857Z,53.11
2022-09-23T16:14:24.892Z,53.58
2022-09-23T16:16:52.043Z,54.05
2022-09-23T16:19:19.257Z,54.33
2022-09-23T16:21:46.347Z,54.72
2022-09-23T16:24:17.975Z,55.56
2022-09-23T16:26:46.567Z,55.73
2022-09-23T16:29:13.858Z,55.36
2022-09-23T16:31:41.086Z,55.72
2022-09-23T16:34:08.528Z,56.56
2022-09-23T16:36:41.180Z,56.69
2022-09-23T16:39:12.068Z,57.05
2022-09-23T16:41:39.346Z,57.24
2022-09-23T16:44:08.256Z,57.69
2022-09-23T16:46:35.423Z,57.13
2022-09-23T16:49:02.975Z,57.88
2022-09-23T16:51:38.963Z,58.41
2022-09-23T16:54:11.509Z,59.21
2022-09-23T16:56:44.252Z,59.49
2022-09-23T16:59:12.690Z,59.69
2022-09-23T17:01:58.482Z,60.55
2022-09-23T17:04:25.589Z,61.11
2022-09-23T17:06:53.233Z,61.63
2022-09-23T17:09:22.516Z,61.96
2022-09-23T17:11:58.712Z,62.13
2022-09-23T17:14:25.899Z,62.78
2022-09-23T17:16:52.961Z,63.22
2022-09-23T17:19:19.999Z,63.06
2022-09-23T17:21:47.047Z,64.36
2022-09-23T17:24:14.910Z,64.78
2022-09-23T17:26:41.932Z,64.92
2022-09-23T17:29:09.831Z,64.80
2022-09-23T17:31:36.953Z,65.31
2022-09-23T17:34:04.022Z,65.60
2022-09-23T17:36:31.365Z,65.97
2022-09-23T17:38:58.386Z,66.22
2022-09-23T17:41:25.434Z,66.96
2022-09-23T17:43:57.035Z,67.29
2022-09-23T17:46:24.274Z,66.95
2022-09-23T17:48:55.481Z,67.20
2022-09-23T17:51:23.112Z,67.61
2022-09-23T17:53:50.355Z,67.91
2022-09-23T17:56:18.602Z,68.30
2022-09-23T17:58:47.464Z,68.76
2022-09-23T18:01:17.253Z,68.80
2022-09-23T18:03:44.422Z,69.14
2022-09-23T18:06:12.872Z,69.42
2022-09-23T18:08:41.927Z,69.72
2022-09-23T18:11:22.976Z,69.96
2022-09-23T18:13:55.127Z,70.00
2022-09-23T18:16:24.180Z,70.03
2022-09-23T18:18:52.626Z,70.15
2022-09-23T18:21:20.820Z,70.44
2022-09-23T18:23:48.364Z,70.71
2022-09-23T18:26:17.250Z,71.11
2022-09-23T18:28:45.210Z,70.74
2022-09-23T18:31:12.448Z,71.24
2022-09-23T18:33:40.036Z,71.15
2022-09-23T18:36:07.933Z,71.27
2022-09-23T18:38:35.117Z,70.92
2022-09-23T18:41:02.546Z,70.82
2022-09-23T18:43:40.523Z,70.17
2022-09-23T18:46:17.933Z,70.47
2022-09-23T18:49:03.677Z,69.84
2022-09-23T18:51:34.597Z,69.89
2022-09-23T18:54:03.317Z,70.07
2022-09-23T18:56:39.777Z,71.37
2022-09-23T18:59:08.527Z,71.21
2022-09-23T19:01:35.733Z,71.32
2022-09-23T19:04:03.786Z,70.74
2022-09-23T19:06:34.932Z,71.73
2022-09-23T19:09:02.145Z,71.50
2022-09-23T19:11:30.041Z,71.54
2022-09-23T19:14:00.335Z,71.84
2022-09-23T19:16:27.592Z,72.24
2022-09-23T19:18:54.644Z,72.41
2022-09-23T19:21:22.755Z,72.31
2022-09-23T19:23:55.177Z,72.21
2022-09-23T19:26:25.248Z,72.30
2022-09-23T19:28:54.907Z,72.23
2022-09-23T19:31:24.244Z,72.63
2022-09-23T19:33:58.315Z,72.53
2022-09-23T19:36:30.969Z,72.45
2022-09-23T19:39:03.770Z,72.69
2022-09-23T19:41:32.212Z,73.42
2022-09-23T19:44:03.004Z,73.22
2022-09-23T19:46:31.167Z,72.99
2022-09-23T19:48:58.719Z,73.36
2022-09-23T19:51:26.234Z,73.19
2022-09-23T19:53:53.288Z,73.72
2022-09-23T19:56:20.381Z,73.02
2022-09-23T19:58:51.510Z,72.82
2022-09-23T20:01:18.773Z,72.65
2022-09-23T20:03:47.002Z,72.85
2022-09-23T20:06:14.990Z,73.04
2022-09-23T20:08:43.383Z,72.88
2022-09-23T20:11:18.912Z,73.08
2022-09-23T20:13:50.057Z,72.06
2022-09-23T20:16:19.102Z,72.48
2022-09-23T20:18:47.033Z,72.58
2022-09-23T20:21:15.221Z,73.16
2022-09-23T20:23:42.641Z,72.46
2022-09-23T20:26:28.547Z,73.07
2022-09-23T20:28:55.633Z,72.60
2022-09-23T20:31:23.337Z,73.54
2022-09-23T20:33:51.373Z,73.39
2022-09-23T20:36:18.442Z,73.55
2022-09-23T20:38:45.519Z,73.63
2022-09-23T20:41:12.589Z,73.42
2022-09-23T20:43:39.750Z,73.83
2022-09-23T20:46:07.128Z,73.69
2022-09-23T20:48:34.164Z,73.41
2022-09-23T20:51:02.748Z,73.32
2022-09-23T20:53:31.818Z,73.77
2022-09-23T20:55:59.703Z,73.39
2022-09-23T20:58:32.853Z,74.15
2022-09-23T21:01:05.311Z,74.22
2022-09-23T21:03:32.920Z,74.36
2022-09-23T21:06:01.604Z,75.00
2022-09-23T21:08:28.690Z,74.92
2022-09-23T21:10:59.523Z,74.28
2022-09-23T21:13:26.578Z,74.42
2022-09-23T21:15:53.693Z,74.33
2022-09-23T21:18:22.660Z,74.36
2022-09-23T21:21:00.013Z,74.87
2022-09-23T21:23:29.257Z,74.80
2022-09-23T21:26:20.050Z,75.52
2022-09-23T21:28:48.714Z,75.39
2022-09-23T21:31:27.484Z,75.53
2022-09-23T21:33:59.529Z,75.51
2022-09-23T21:36:28.130Z,75.39
2022-09-23T21:38:58.148Z,75.32
2022-09-23T21:41:25.496Z,75.84
2022-09-23T21:43:52.562Z,75.51
2022-09-23T21:46:20.799Z,75.83
2022-09-23T21:48:53.291Z,75.76
2022-09-23T21:51:24.147Z,76.03
2022-09-23T21:53:52.215Z,76.35
2022-09-23T21:56:23.997Z,76.13
2022-09-23T21:58:53.379Z,76.34
2022-09-23T22:01:25.781Z,76.02
2022-09-23T22:03:57.857Z,76.19
2022-09-23T22:06:27.471Z,76.16
2022-09-23T22:08:59.062Z,76.61
2022-09-23T22:11:49.508Z,76.64
2022-09-23T22:14:18.874Z,76.67
2022-09-23T22:16:46.304Z,76.73
2022-09-23T22:19:14.764Z,76.41
2022-09-23T22:21:43.838Z,76.59
2022-09-23T22:24:11.542Z,76.28
2022-09-23T22:26:43.194Z,76.27
2022-09-23T22:29:33.329Z,76.67
2022-09-23T22:32:20.280Z,76.55
2022-09-23T22:34:51.661Z,76.80
2022-09-23T22:37:23.745Z,76.96
2022-09-23T22:39:51.046Z,76.46
2022-09-23T22:42:20.746Z,77.08
2022-09-23T22:44:48.438Z,77.11
2022-09-23T22:47:17.770Z,77.02
2022-09-23T22:49:46.205Z,77.28
2022-09-23T22:52:14.931Z,77.45
2022-09-23T22:54:42.240Z,77.53
2022-09-23T22:57:09.400Z,77.47
2022-09-23T22:59:37.419Z,76.97
2022-09-23T23:02:05.248Z,76.93
2022-09-23T23:04:33.523Z,76.57
2022-09-23T23:07:00.643Z,77.08
2022-09-23T23:09:27.933Z,77.31
2022-09-23T23:11:55.491Z,77.56
2022-09-23T23:14:22.720Z,77.64
2022-09-23T23:16:49.889Z,77.34
2022-09-23T23:19:17.542Z,76.85
2022-09-23T23:21:45.656Z,77.01
2022-09-23T23:24:21.436Z,77.74
2022-09-23T23:26:49.351Z,77.69
2022-09-23T23:29:18.230Z,77.75
2022-09-23T23:31:45.336Z,77.89
2022-09-23T23:34:14.593Z,77.99
2022-09-23T23:36:43.022Z,78.32
2022-09-23T23:39:11.006Z,78.05
2022-09-23T23:41:39.491Z,78.16
2022-09-23T23:44:07.730Z,78.22
2022-09-23T23:46:35.382Z,78.30
2022-09-23T23:49:02.518Z,78.31
2022-09-23T23:51:29.975Z,78.47
2022-09-23T23:53:59.187Z,78.52
2022-09-23T23:56:27.064Z,78.07
2022-09-23T23:58:55.777Z,78.07
